createdAt,value
2018-08-22T00:00:44.079Z,1.47
2018-08-22T00:03:12.562Z,1.10
2018-08-22T00:05:41.154Z,1.27
2018-08-22T00:08:09.862Z,1.20
2018-08-22T00:10:38.492Z,1.27
2018-08-22T00:13:07.091Z,1.80
2018-08-22T00:15:35.659Z,1.10
2018-08-22T00:18:04.291Z,1.23
2018-08-22T00:20:38.558Z,1.20
2018-08-22T00:23:07.051Z,1.10
2018-08-22T00:25:35.663Z,1.20
2018-08-22T00:28:04.363Z,1.30
2018-08-22T00:30:32.931Z,1.40
2018-08-22T00:33:01.502Z,1.20
2018-08-22T00:35:31.011Z,1.20
2018-08-22T00:37:59.605Z,1.47
2018-08-22T00:40:28.166Z,1.50
2018-08-22T00:42:56.738Z,1.47
2018-08-22T00:45:25.519Z,1.20
2018-08-22T00:47:54.151Z,1.27
2018-08-22T00:50:23.106Z,1.40
2018-08-22T00:52:51.672Z,1.30
2018-08-22T00:55:20.359Z,1.40
2018-08-22T00:57:49.255Z,1.20
2018-08-22T01:00:17.823Z,1.40
2018-08-22T01:02:46.414Z,1.43
2018-08-22T01:05:15.100Z,1.27
2018-08-22T01:07:43.599Z,1.30
2018-08-22T01:10:12.212Z,1.40
2018-08-22T01:12:40.799Z,1.50
2018-08-22T01:15:09.553Z,1.30
2018-08-22T01:17:38.138Z,1.60
2018-08-22T01:20:07.516Z,1.13
2018-08-22T01:22:36.406Z,1.43
2018-08-22T01:25:05.367Z,1.20
2018-08-22T01:27:33.978Z,1.50
2018-08-22T01:30:02.567Z,1.37
2018-08-22T01:32:31.251Z,1.80
2018-08-22T01:34:59.937Z,1.80
2018-08-22T01:37:28.452Z,1.50
2018-08-22T01:39:57.100Z,1.43
2018-08-22T01:42:25.629Z,1.30
2018-08-22T01:44:54.131Z,1.40
2018-08-22T01:47:22.686Z,1.30
2018-08-22T01:49:51.251Z,1.20
2018-08-22T01:52:19.799Z,1.57
2018-08-22T01:54:48.495Z,0.90
2018-08-22T01:57:17.028Z,1.30
2018-08-22T01:59:45.660Z,1.20
2018-08-22T02:02:14.182Z,1.50
2018-08-22T02:04:42.666Z,1.27
2018-08-22T02:07:11.311Z,1.03
2018-08-22T02:09:39.801Z,1.10
2018-08-22T02:12:08.356Z,1.40
2018-08-22T02:14:36.943Z,1.10
2018-08-22T02:17:05.599Z,1.10
2018-08-22T02:19:34.144Z,1.37
2018-08-22T02:22:02.743Z,1.20
2018-08-22T02:24:31.347Z,1.20
2018-08-22T02:26:59.995Z,1.10
2018-08-22T02:29:28.514Z,1.10
2018-08-22T02:31:57.141Z,0.93
2018-08-22T02:34:25.623Z,0.90
2018-08-22T02:36:54.171Z,1.30
2018-08-22T02:39:22.695Z,1.00
2018-08-22T02:41:51.323Z,1.00
2018-08-22T02:44:20.027Z,1.30
2018-08-22T02:46:48.633Z,1.00
2018-08-22T02:49:17.171Z,1.07
2018-08-22T02:51:45.686Z,0.80
2018-08-22T02:54:14.179Z,0.80
2018-08-22T02:56:42.698Z,1.23
2018-08-22T02:59:11.551Z,1.20
2018-08-22T03:01:40.152Z,0.77
2018-08-22T03:04:08.742Z,0.90
2018-08-22T03:06:37.399Z,1.07
2018-08-22T03:09:07.967Z,0.90
2018-08-22T03:11:36.663Z,1.17
2018-08-22T03:14:05.477Z,1.10
2018-08-22T03:16:33.985Z,1.00
2018-08-22T03:19:02.527Z,0.87
2018-08-22T03:21:31.106Z,1.10
2018-08-22T03:23:59.591Z,0.80
2018-08-22T03:26:28.198Z,0.73
2018-08-22T03:28:56.707Z,0.93
2018-08-22T03:31:26.094Z,0.90
2018-08-22T03:33:55.274Z,1.20
2018-08-22T03:36:24.135Z,1.00
2018-08-22T03:38:52.690Z,0.90
2018-08-22T03:41:21.335Z,0.90
2018-08-22T03:43:49.915Z,1.20
2018-08-22T03:46:18.519Z,1.13
2018-08-22T03:48:47.462Z,0.90
2018-08-22T03:51:16.058Z,1.03
2018-08-22T03:53:44.804Z,0.90
2018-08-22T03:56:13.460Z,0.83
2018-08-22T03:58:42.043Z,0.90
2018-08-22T04:01:10.728Z,0.90
2018-08-22T04:03:39.240Z,1.00
2018-08-22T04:06:08.610Z,1.00
2018-08-22T04:08:37.164Z,1.10
2018-08-22T04:11:05.935Z,0.90
2018-08-22T04:13:34.563Z,1.00
2018-08-22T04:16:03.146Z,1.17
2018-08-22T04:18:31.674Z,1.00
2018-08-22T04:21:00.314Z,1.00
2018-08-22T04:23:28.896Z,1.00
2018-08-22T04:25:58.003Z,1.20
2018-08-22T04:28:26.677Z,1.00
2018-08-22T04:30:55.308Z,1.20
2018-08-22T04:33:24.364Z,1.10
2018-08-22T04:35:52.958Z,1.03
2018-08-22T04:38:21.621Z,1.33
2018-08-22T04:40:50.138Z,1.23
2018-08-22T04:43:18.707Z,1.17
2018-08-22T04:45:47.370Z,1.60
2018-08-22T04:48:15.897Z,1.03
2018-08-22T04:50:44.456Z,1.50
2018-08-22T04:53:13.091Z,1.13
2018-08-22T04:55:41.703Z,1.73
2018-08-22T04:58:10.316Z,1.10
2018-08-22T05:00:38.871Z,1.27
2018-08-22T05:03:07.384Z,1.30
2018-08-22T05:05:35.958Z,1.07
2018-08-22T05:08:04.617Z,1.43
2018-08-22T05:10:33.428Z,1.40
2018-08-22T05:13:02.041Z,1.40
2018-08-22T05:15:30.672Z,1.40
2018-08-22T05:17:59.299Z,1.40
2018-08-22T05:20:27.845Z,1.30
2018-08-22T05:22:57.467Z,1.23
2018-08-22T05:25:26.166Z,1.60
2018-08-22T05:27:54.817Z,1.43
2018-08-22T05:30:23.501Z,1.80
2018-08-22T05:32:52.084Z,1.40
2018-08-22T05:35:20.872Z,1.50
2018-08-22T05:37:49.558Z,1.63
2018-08-22T05:40:18.195Z,1.10
2018-08-22T05:42:47.654Z,1.20
2018-08-22T05:45:17.047Z,1.30
2018-08-22T05:47:46.155Z,1.70
2018-08-22T05:50:14.826Z,1.43
2018-08-22T05:52:43.639Z,1.50
2018-08-22T05:55:12.219Z,1.47
2018-08-22T05:57:40.852Z,1.57
2018-08-22T06:00:09.554Z,1.67
2018-08-22T06:02:38.082Z,1.50
2018-08-22T06:05:07.385Z,1.60
2018-08-22T06:07:36.040Z,1.43
2018-08-22T06:10:04.869Z,1.40
2018-08-22T06:12:33.609Z,1.63
2018-08-22T06:15:02.207Z,1.67
2018-08-22T06:17:30.773Z,1.30
2018-08-22T06:19:59.365Z,1.50
2018-08-22T06:22:28.114Z,1.30
2018-08-22T06:24:57.855Z,1.23
2018-08-22T06:27:30.367Z,1.43
2018-08-22T06:30:00.310Z,1.30
2018-08-22T06:32:29.803Z,1.17
2018-08-22T06:34:58.738Z,1.20
2018-08-22T06:37:29.083Z,1.60
2018-08-22T06:39:59.119Z,1.50
2018-08-22T06:42:27.667Z,1.55
2018-08-22T06:44:56.458Z,1.67
2018-08-22T06:47:24.975Z,1.90
2018-08-22T06:49:53.518Z,1.30
2018-08-22T06:52:22.905Z,1.60
2018-08-22T06:54:51.497Z,1.60
2018-08-22T06:57:20.007Z,1.50
2018-08-22T06:59:49.115Z,1.33
2018-08-22T07:02:17.605Z,1.20
2018-08-22T07:04:46.212Z,1.20
2018-08-22T07:07:15.675Z,1.20
2018-08-22T07:09:44.211Z,1.25
2018-08-22T07:12:12.807Z,0.72
2018-08-22T07:14:42.006Z,0.80
2018-08-22T07:17:10.475Z,1.10
2018-08-22T07:19:38.998Z,1.05
2018-08-22T07:22:07.661Z,1.22
2018-08-22T07:24:36.285Z,1.02
2018-08-22T07:27:04.924Z,1.22
2018-08-22T07:29:33.604Z,0.90
2018-08-22T07:32:02.116Z,1.32
2018-08-22T07:34:30.760Z,1.00
2018-08-22T07:36:59.354Z,1.22
2018-08-22T07:39:27.903Z,4.83
2018-08-22T07:41:56.844Z,1.80
2018-08-22T07:44:30.745Z,1.10
2018-08-22T07:47:03.513Z,1.07
2018-08-22T07:49:35.186Z,0.98
2018-08-22T07:52:06.875Z,1.10
2018-08-22T07:54:43.114Z,1.05
2018-08-22T07:57:19.516Z,1.07
2018-08-22T07:59:54.855Z,1.10
2018-08-22T08:02:31.377Z,1.15
2018-08-22T08:05:00.563Z,1.20
2018-08-22T08:07:35.609Z,1.40
2018-08-22T08:10:07.527Z,1.12
2018-08-22T08:12:41.340Z,1.22
2018-08-22T08:15:12.481Z,1.20
2018-08-22T08:17:44.203Z,1.40
2018-08-22T08:20:12.851Z,1.07
2018-08-22T08:22:41.381Z,1.20
2018-08-22T08:25:10.113Z,1.40
2018-08-22T08:27:38.680Z,1.00
2018-08-22T08:30:08.151Z,1.40
2018-08-22T08:32:38.811Z,1.17
2018-08-22T08:35:09.229Z,1.10
2018-08-22T08:37:38.455Z,1.47
2018-08-22T08:40:09.775Z,1.20
2018-08-22T08:42:42.136Z,1.07
2018-08-22T08:45:13.932Z,1.02
2018-08-22T08:47:50.715Z,1.12
2018-08-22T08:50:25.753Z,1.20
2018-08-22T08:52:55.227Z,1.00
2018-08-22T08:55:35.296Z,0.98
2018-08-22T08:58:19.945Z,1.57
2018-08-22T09:00:48.642Z,1.45
2018-08-22T09:03:18.218Z,1.25
2018-08-22T09:05:49.189Z,1.40
2018-08-22T09:08:18.774Z,1.60
2018-08-22T09:10:48.162Z,1.62
2018-08-22T09:13:20.329Z,1.40
2018-08-22T09:15:50.233Z,1.50
2018-08-22T09:18:19.975Z,1.85
2018-08-22T09:20:50.639Z,1.65
2018-08-22T09:23:22.383Z,1.60
2018-08-22T09:25:51.084Z,1.92
2018-08-22T09:28:20.445Z,1.90
2018-08-22T09:30:52.191Z,2.00
2018-08-22T09:33:27.570Z,1.37
2018-08-22T09:35:57.907Z,1.57
2018-08-22T09:38:30.051Z,1.80
2018-08-22T09:41:01.603Z,2.37
2018-08-22T09:43:33.778Z,1.98
2018-08-22T09:46:05.125Z,1.92
2018-08-22T09:48:36.620Z,2.40
2018-08-22T09:51:07.097Z,1.82
2018-08-22T09:53:38.479Z,2.12
2018-08-22T09:56:08.780Z,1.80
2018-08-22T09:58:43.212Z,1.62
2018-08-22T10:01:18.385Z,1.80
2018-08-22T10:03:57.393Z,1.82
2018-08-22T10:06:43.972Z,6.05
2018-08-22T10:09:15.688Z,1.90
2018-08-22T10:11:47.177Z,1.62
2018-08-22T10:14:17.198Z,1.85
2018-08-22T10:16:47.238Z,1.87
2018-08-22T10:19:17.624Z,1.52
2018-08-22T10:21:47.666Z,1.80
2018-08-22T10:24:17.046Z,1.87
2018-08-22T10:26:47.891Z,1.80
2018-08-22T10:29:19.929Z,1.87
2018-08-22T10:31:49.858Z,1.50
2018-08-22T10:34:19.497Z,1.50
2018-08-22T10:36:49.792Z,1.57
2018-08-22T10:39:21.487Z,1.82
2018-08-22T10:41:53.447Z,1.60
2018-08-22T10:44:24.996Z,1.80
2018-08-22T10:49:42.116Z,1.50
2018-08-22T10:52:17.043Z,1.27
2018-08-22T10:54:46.221Z,1.37
2018-08-22T10:57:17.158Z,1.35
2018-08-22T10:59:47.392Z,1.22
2018-08-22T11:02:19.607Z,1.30
2018-08-22T11:04:51.526Z,1.32
2018-08-22T11:07:21.588Z,1.40
2018-08-22T11:09:52.896Z,1.35
2018-08-22T11:12:21.560Z,1.12
2018-08-22T11:14:50.758Z,1.22
2018-08-22T11:17:20.099Z,1.40
2018-08-22T11:19:48.748Z,1.12
2018-08-22T11:22:28.397Z,1.37
2018-08-22T11:25:08.275Z,1.20
2018-08-22T11:27:48.143Z,1.20
2018-08-22T11:30:29.050Z,1.45
2018-08-22T11:33:13.201Z,1.30
2018-08-22T11:35:44.734Z,1.30
2018-08-22T11:38:15.592Z,1.17
2018-08-22T11:40:45.838Z,1.30
2018-08-22T11:43:18.855Z,1.35
2018-08-22T11:45:49.936Z,1.05
2018-08-22T11:48:20.844Z,1.15
2018-08-22T11:50:49.515Z,1.25
2018-08-22T11:53:20.263Z,1.25
2018-08-22T11:55:51.113Z,1.10
2018-08-22T11:58:25.265Z,1.05
2018-08-22T12:00:57.440Z,1.17
2018-08-22T12:03:26.102Z,1.37
2018-08-22T12:05:54.777Z,1.07
2018-08-22T12:08:23.279Z,1.10
2018-08-22T12:10:51.875Z,1.12
2018-08-22T12:13:20.526Z,0.93
2018-08-22T12:15:49.211Z,1.17
2018-08-22T12:18:17.793Z,1.00
2018-08-22T12:20:46.424Z,1.22
2018-08-22T12:23:15.266Z,0.98
2018-08-22T12:25:43.748Z,1.50
2018-08-22T12:28:12.367Z,1.10
2018-08-22T12:30:41.124Z,1.00
2018-08-22T12:33:09.769Z,1.10
2018-08-22T12:35:38.302Z,0.90
2018-08-22T12:38:06.903Z,1.30
2018-08-22T12:40:35.455Z,1.40
2018-08-22T12:43:03.977Z,1.00
2018-08-22T12:45:32.672Z,1.22
2018-08-22T12:48:01.447Z,0.95
2018-08-22T12:50:30.053Z,1.02
2018-08-22T12:52:59.039Z,1.12
2018-08-22T12:55:27.572Z,1.05
2018-08-22T12:57:56.249Z,1.30
2018-08-22T13:00:24.875Z,0.80
2018-08-22T13:02:53.476Z,1.17
2018-08-22T13:05:22.815Z,1.55
2018-08-22T13:07:51.526Z,1.05
2018-08-22T13:10:20.186Z,1.00
2018-08-22T13:12:48.812Z,1.20
2018-08-22T13:15:17.437Z,0.80
2018-08-22T13:17:46.350Z,1.10
2018-08-22T13:20:14.971Z,1.00
2018-08-22T13:22:43.566Z,1.22
2018-08-22T13:25:12.266Z,1.10
2018-08-22T13:27:41.422Z,0.80
2018-08-22T13:30:09.975Z,0.95
2018-08-22T13:32:38.663Z,1.10
2018-08-22T13:35:07.519Z,1.10
2018-08-22T13:37:36.235Z,0.90
2018-08-22T13:40:04.950Z,1.00
2018-08-22T13:42:33.555Z,1.20
2018-08-22T13:45:02.158Z,0.95
2018-08-22T13:47:30.735Z,0.90
2018-08-22T13:49:59.356Z,1.20
2018-08-22T13:52:27.944Z,1.00
2018-08-22T13:54:56.623Z,0.95
2018-08-22T13:57:26.127Z,1.02
2018-08-22T13:59:54.710Z,0.82
2018-08-22T14:02:23.395Z,1.15
2018-08-22T14:04:52.846Z,1.10
2018-08-22T14:07:21.427Z,1.00
2018-08-22T14:09:50.679Z,1.10
2018-08-22T14:12:19.268Z,0.80
2018-08-22T14:14:48.051Z,1.00
2018-08-22T14:17:16.659Z,1.00
2018-08-22T14:19:47.337Z,1.10
2018-08-22T14:22:16.430Z,1.05
2018-08-22T14:24:45.851Z,1.22
2018-08-22T14:27:14.399Z,1.20
2018-08-22T14:29:42.934Z,0.98
2018-08-22T14:32:11.438Z,1.10
2018-08-22T14:34:39.992Z,1.15
2018-08-22T14:37:08.635Z,1.00
2018-08-22T14:39:37.362Z,0.95
2018-08-22T14:42:05.997Z,1.10
2018-08-22T14:44:34.656Z,0.90
2018-08-22T14:47:03.317Z,1.30
2018-08-22T14:49:31.859Z,1.12
2018-08-22T14:54:43.706Z,1.07
2018-08-22T14:57:12.307Z,1.15
2018-08-22T14:59:41.181Z,1.15
2018-08-22T15:02:10.377Z,1.25
2018-08-22T15:04:39.063Z,0.95
2018-08-22T15:07:07.749Z,1.20
2018-08-22T15:09:36.803Z,1.00
2018-08-22T15:12:05.575Z,1.05
2018-08-22T15:14:34.119Z,1.37
2018-08-22T15:17:02.700Z,1.00
2018-08-22T15:19:31.362Z,1.10
2018-08-22T15:22:00.539Z,1.05
2018-08-22T15:24:29.106Z,1.20
2018-08-22T15:26:57.740Z,2.15
2018-08-22T15:29:26.383Z,1.10
2018-08-22T15:31:55.009Z,1.35
2018-08-22T15:34:24.023Z,1.60
2018-08-22T15:36:52.649Z,1.05
2018-08-22T15:39:21.146Z,1.22
2018-08-22T15:41:49.892Z,1.52
2018-08-22T15:44:18.569Z,1.22
2018-08-22T15:46:47.811Z,1.35
2018-08-22T15:49:16.327Z,1.45
2018-08-22T15:51:44.901Z,1.27
2018-08-22T15:54:15.102Z,1.92
2018-08-22T15:56:43.847Z,1.42
2018-08-22T15:59:13.366Z,1.20
2018-08-22T16:01:41.998Z,1.20
2018-08-22T16:04:11.197Z,1.10
2018-08-22T16:06:39.882Z,1.20
2018-08-22T16:09:15.995Z,1.05
2018-08-22T16:11:44.931Z,1.25
2018-08-22T16:14:13.533Z,1.35
2018-08-22T16:16:42.124Z,1.20
2018-08-22T16:19:10.883Z,1.27
2018-08-22T16:21:39.409Z,1.27
2018-08-22T16:24:07.684Z,1.20
2018-08-22T16:26:36.167Z,1.32
2018-08-22T16:29:04.751Z,1.20
2018-08-22T16:31:38.714Z,1.12
2018-08-22T16:34:10.109Z,2.00
2018-08-22T16:36:40.200Z,1.50
2018-08-22T16:39:09.637Z,2.85
2018-08-22T16:41:38.385Z,1.65
2018-08-22T16:44:07.158Z,1.32
2018-08-22T16:46:35.852Z,1.82
2018-08-22T16:49:04.467Z,2.62
2018-08-22T16:51:33.057Z,1.35
2018-08-22T16:54:06.915Z,2.08
2018-08-22T16:56:35.809Z,1.70
2018-08-22T16:59:09.106Z,3.25
2018-08-22T17:01:39.563Z,2.30
2018-08-22T17:04:08.412Z,1.45
2018-08-22T17:06:37.101Z,1.37
2018-08-22T17:09:08.803Z,1.17
2018-08-22T17:11:37.338Z,1.55
2018-08-22T17:14:06.596Z,1.50
2018-08-22T17:16:36.067Z,1.10
2018-08-22T17:19:05.037Z,1.25
2018-08-22T17:21:34.332Z,1.70
2018-08-22T17:24:03.020Z,1.50
2018-08-22T17:26:32.181Z,1.40
2018-08-22T17:29:01.263Z,0.90
2018-08-22T17:31:30.819Z,1.32
2018-08-22T17:34:00.731Z,1.60
2018-08-22T17:36:29.379Z,1.30
2018-08-22T17:39:12.753Z,1.75
2018-08-22T17:41:41.428Z,1.40
2018-08-22T17:44:14.540Z,1.27
2018-08-22T17:46:48.911Z,1.42
2018-08-22T17:49:17.678Z,1.20
2018-08-22T17:52:10.270Z,1.40
2018-08-22T17:54:39.570Z,1.27
2018-08-22T17:57:15.723Z,1.40
2018-08-22T17:59:45.310Z,1.40
2018-08-22T18:02:14.023Z,1.57
2018-08-22T18:04:51.883Z,1.47
2018-08-22T18:07:20.408Z,1.12
2018-08-22T18:09:50.017Z,1.72
2018-08-22T18:12:19.594Z,1.47
2018-08-22T18:14:48.101Z,1.17
2018-08-22T18:17:19.341Z,1.50
2018-08-22T18:19:49.395Z,1.65
2018-08-22T18:22:17.951Z,1.45
2018-08-22T18:24:51.447Z,1.70
2018-08-22T18:27:20.130Z,1.30
2018-08-22T18:29:48.708Z,1.30
2018-08-22T18:32:17.494Z,1.30
2018-08-22T18:34:58.785Z,1.35
2018-08-22T18:37:28.987Z,1.40
2018-08-22T18:40:10.607Z,1.55
2018-08-22T18:42:39.781Z,1.85
2018-08-22T18:45:08.671Z,1.37
2018-08-22T18:47:37.943Z,1.65
2018-08-22T18:50:06.810Z,2.62
2018-08-22T18:52:35.551Z,2.58
2018-08-22T18:55:04.316Z,1.15
2018-08-22T18:57:32.977Z,1.40
2018-08-22T19:00:04.643Z,1.22
2018-08-22T19:02:33.670Z,1.22
2018-08-22T19:05:20.235Z,1.55
2018-08-22T19:07:59.343Z,1.40
2018-08-22T19:10:31.765Z,1.57
2018-08-22T19:13:16.128Z,1.55
2018-08-22T19:15:50.416Z,1.50
2018-08-22T19:18:19.387Z,1.65
2018-08-22T19:20:48.379Z,1.57
2018-08-22T19:23:17.091Z,1.27
2018-08-22T19:25:47.130Z,1.50
2018-08-22T19:28:15.659Z,1.37
2018-08-22T19:30:44.227Z,1.35
2018-08-22T19:33:14.838Z,1.50
2018-08-22T19:35:43.974Z,1.60
2018-08-22T19:38:14.711Z,1.20
2018-08-22T19:40:43.441Z,1.45
2018-08-22T19:43:12.107Z,1.37
2018-08-22T19:45:40.813Z,1.12
2018-08-22T19:48:09.562Z,1.70
2018-08-22T19:50:38.131Z,1.30
2018-08-22T19:53:07.066Z,1.57
2018-08-22T19:55:36.631Z,1.40
2018-08-22T19:58:05.503Z,1.42
2018-08-22T20:00:34.083Z,1.25
2018-08-22T20:03:02.607Z,1.50
2018-08-22T20:05:50.985Z,1.17
2018-08-22T20:08:23.914Z,1.42
2018-08-22T20:10:52.519Z,1.47
2018-08-22T20:13:21.046Z,1.62
2018-08-22T20:15:49.616Z,4.45
2018-08-22T20:18:18.939Z,1.75
2018-08-22T20:20:48.118Z,1.60
2018-08-22T20:23:16.937Z,1.50
2018-08-22T20:25:45.480Z,1.37
2018-08-22T20:28:14.067Z,1.52
2018-08-22T20:30:42.559Z,1.65
2018-08-22T20:33:11.904Z,1.67
2018-08-22T20:35:42.491Z,1.60
2018-08-22T20:38:12.697Z,1.77
2018-08-22T20:40:41.327Z,1.72
2018-08-22T20:43:16.971Z,1.65
2018-08-22T20:45:45.535Z,1.60
2018-08-22T20:48:15.095Z,1.32
2018-08-22T20:50:44.994Z,1.40
2018-08-22T20:53:16.183Z,2.17
2018-08-22T20:55:44.902Z,1.90
2018-08-22T20:58:18.871Z,1.45
2018-08-22T21:00:47.517Z,1.67
2018-08-22T21:03:18.855Z,1.82
2018-08-22T21:05:47.586Z,1.80
2018-08-22T21:08:16.145Z,1.50
2018-08-22T21:10:44.699Z,1.87
2018-08-22T21:13:18.354Z,1.70
2018-08-22T21:15:47.142Z,1.72
2018-08-22T21:18:15.622Z,1.60
2018-08-22T21:20:44.154Z,1.75
2018-08-22T21:23:12.729Z,1.98
2018-08-22T21:25:42.803Z,2.00
2018-08-22T21:28:11.435Z,1.72
2018-08-22T21:30:43.664Z,1.82
2018-08-22T21:33:12.396Z,1.90
2018-08-22T21:35:41.026Z,2.33
2018-08-22T21:38:13.672Z,1.98
2018-08-22T21:40:42.189Z,1.95
2018-08-22T21:43:13.102Z,2.37
2018-08-22T21:45:41.913Z,2.02
2018-08-22T21:48:17.390Z,2.60
2018-08-22T21:50:46.551Z,2.25
2018-08-22T21:53:15.237Z,1.77
2018-08-22T21:55:45.668Z,2.00
2018-08-22T21:58:15.166Z,2.20
2018-08-22T22:00:43.738Z,2.17
2018-08-22T22:03:13.257Z,2.02
2018-08-22T22:05:44.643Z,2.02
2018-08-22T22:08:13.211Z,2.02
2018-08-22T22:10:42.078Z,2.30
2018-08-22T22:13:11.374Z,2.40
2018-08-22T22:15:42.104Z,2.05
2018-08-22T22:18:11.051Z,2.05
2018-08-22T22:20:40.049Z,2.30
2018-08-22T22:23:08.723Z,2.17
2018-08-22T22:25:37.300Z,2.40
2018-08-22T22:28:05.950Z,2.17
2018-08-22T22:30:34.735Z,2.25
2018-08-22T22:33:04.034Z,2.33
2018-08-22T22:35:37.578Z,2.67
2018-08-22T22:38:12.765Z,2.25
2018-08-22T22:40:41.659Z,2.75
2018-08-22T22:43:12.517Z,3.20
2018-08-22T22:45:41.126Z,2.65
2018-08-22T22:48:09.812Z,2.80
2018-08-22T22:50:38.331Z,3.15
2018-08-22T22:53:07.652Z,2.58
2018-08-22T22:55:36.170Z,2.70
2018-08-22T22:58:05.633Z,2.60
2018-08-22T23:00:34.214Z,2.52
2018-08-22T23:03:07.302Z,2.40
2018-08-22T23:05:35.987Z,2.55
2018-08-22T23:08:05.023Z,2.77
2018-08-22T23:10:33.669Z,3.00
2018-08-22T23:13:02.307Z,2.40
2018-08-22T23:15:31.616Z,3.10
2018-08-22T23:18:02.079Z,3.25
2018-08-22T23:20:34.943Z,2.10
2018-08-22T23:23:04.570Z,3.20
2018-08-22T23:25:34.070Z,3.00
2018-08-22T23:28:03.265Z,2.90
2018-08-22T23:30:35.946Z,2.90
2018-08-22T23:33:04.787Z,3.33
2018-08-22T23:35:34.703Z,3.15
2018-08-22T23:38:04.628Z,3.25
2018-08-22T23:40:34.587Z,3.20
2018-08-22T23:43:03.087Z,3.60
2018-08-22T23:45:31.847Z,3.45
2018-08-22T23:48:00.458Z,3.77
2018-08-22T23:50:38.245Z,3.30
2018-08-22T23:53:06.915Z,3.30
2018-08-22T23:55:35.510Z,4.70
2018-08-22T23:58:04.182Z,5.03
